Lowell, MI

10:30 PM EDT on August 25, 2016 (GMT -0400)
Seasons Change Services LLC | | Change Station

Elev 761 ft 43.16 °N, 85.70 °W | Updated 2 seconds ago

Mostly Cloudy
Mostly Cloudy
64.4 °F
Feels Like 64.4 °F
N
0.0
Wind Variable Wind from SW
Gusts 0.0 mph

Today
High -- | Low -- °F
--% Chance of Precip.
Yesterday
High -- | Low -- °F
Precip. -- in
Pressure 30.04 in
Visibility 10.0 miles
Clouds Mostly Cloudy 18000 ft
Dew Point 50.2 °F
Humidity 60%
Rainfall 0.79 in
Snow Depth Not available.
6:58 AM 8:27 PM
Last Quarter, 39% visible
METAR KGRR 260153Z 28006KT 10SM BKN180 21/16 A3005 RMK AO2 SLP171 T02110156
Pressure 30.04 in
Visibility 10.0 miles
Clouds Mostly Cloudy 18000 ft
Dew Point 50.2 °F
Humidity 60%
Rainfall 0.79 in
Snow Depth Not available.
6:58 AM 8:27 PM
Last Quarter, 39% visible
METAR KGRR 260153Z 28006KT 10SM BKN180 21/16 A3005 RMK AO2 SLP171 T02110156
A tropical disturbance pushing toward the Bahamas, is expected to develop into a tropical depression or storm, and will likely target Florida and the Gulf Coast this weekend into next week.

Right now, the disturbance remains a broad area of low pressure pushing through the Dominican Republic and Haiti, headed toward the southeast Bahamas. Rainfall totals over 3 inches (with locally higher amounts) are expected in HispaƱiola, particularly over elevated terrain.

10-Day Weather Forecast

Almanac

Astronomy

Aug. 25, 2016 Rise Set
Actual Time
Civil Twilight
Nautical Twilight
Astronomical Twilight
Moon
Length of Visible Light
Length of Day
Tomorrow will be .
, % of the Moon is Illuminated

Today's Extremes

State Highs State Lows

Community

WunderPhotos

Upload Photos

1,935,030 photos uploaded!

WunderBlog® & News

Nearby

Air Quality

  Air Quality AQ Index Pollutant
Not available.

Snow Depth

Station Depth Elevation

Earthquake Activity

City Distance Mag. Time & Date
Minimum magnitude displayed is 2.5.

Coastal Water Temperatures

Place Temperature

Stations

Nearby Weather Stations

Station Location Temp. Windchill Dew Point Humidity Wind Precip. Elev Updated Type
                   

Watches & Warnings

There are currently no watches in effect.